createdAt,value
2018-12-05T00:02:28.143Z,99050.48
2018-12-05T00:04:59.819Z,99052.22
2018-12-05T00:07:30.589Z,99052.39
2018-12-05T00:10:02.705Z,99050.36
2018-12-05T00:12:33.543Z,99061.30
2018-12-05T00:15:04.581Z,99066.41
2018-12-05T00:17:35.244Z,99068.86
2018-12-05T00:20:07.094Z,99064.03
2018-12-05T00:22:37.954Z,99062.66
2018-12-05T00:25:10.118Z,99062.73
2018-12-05T00:27:40.945Z,99060.51
2018-12-05T00:30:11.648Z,99052.24
2018-12-05T00:32:42.442Z,99051.30
2018-12-05T00:35:13.869Z,99038.91
2018-12-05T00:37:44.711Z,99044.47
2018-12-05T00:40:15.661Z,99044.03
2018-12-05T00:42:46.875Z,99044.59
2018-12-05T00:45:17.880Z,99044.23
2018-12-05T00:47:48.685Z,99042.22
2018-12-05T00:50:19.469Z,99044.59
2018-12-05T00:52:50.454Z,99046.67
2018-12-05T00:55:24.938Z,99041.73
2018-12-05T00:57:55.672Z,99043.95
2018-12-05T01:00:26.545Z,99051.02
2018-12-05T01:02:57.314Z,99048.65
2018-12-05T01:05:28.054Z,99059.88
2018-12-05T01:07:58.789Z,99068.23
2018-12-05T01:10:29.888Z,99064.41
2018-12-05T01:13:00.702Z,99075.58
2018-12-05T01:15:31.465Z,99073.70
2018-12-05T01:18:03.594Z,99070.10
2018-12-05T01:20:34.601Z,99069.91
2018-12-05T01:23:05.280Z,99061.22
2018-12-05T01:25:36.026Z,99062.29
2018-12-05T01:28:08.085Z,99061.51
2018-12-05T01:30:38.851Z,99067.89
2018-12-05T01:33:09.791Z,99067.14
2018-12-05T01:35:40.535Z,99072.17
2018-12-05T01:38:13.588Z,99065.53
2018-12-05T01:40:44.428Z,99061.33
2018-12-05T01:43:15.217Z,99057.31
2018-12-05T01:45:46.127Z,99047.11
2018-12-05T01:48:17.168Z,99045.43
2018-12-05T01:50:47.955Z,99042.34
2018-12-05T01:53:18.676Z,99036.91
2018-12-05T01:55:49.413Z,99039.81
2018-12-05T01:58:20.505Z,99031.31
2018-12-05T02:00:51.221Z,99031.31
2018-12-05T02:03:21.900Z,99030.89
2018-12-05T02:05:52.647Z,99029.49
2018-12-05T02:08:24.817Z,99025.77
2018-12-05T02:10:55.635Z,99016.70
2018-12-05T02:13:26.417Z,99031.45
2018-12-05T02:15:57.159Z,99024.56
2018-12-05T02:18:28.095Z,99025.34
2018-12-05T02:20:58.869Z,99024.30
2018-12-05T02:23:29.499Z,99019.55
2018-12-05T02:26:00.161Z,99017.64
2018-12-05T02:28:31.174Z,99014.38
2018-12-05T02:31:02.518Z,99018.73
2018-12-05T02:33:33.253Z,99011.73
2018-12-05T02:36:04.148Z,99015.47
2018-12-05T02:38:34.886Z,99013.75
2018-12-05T02:41:06.022Z,99011.29
2018-12-05T02:43:37.044Z,99001.05
2018-12-05T02:46:07.903Z,99002.35
2018-12-05T02:48:40.316Z,99000.04
2018-12-05T02:51:11.086Z,98999.98
2018-12-05T02:53:43.170Z,98994.73
2018-12-05T02:56:14.147Z,98994.84
2018-12-05T02:58:44.949Z,98986.37
2018-12-05T03:01:15.995Z,98988.70
2018-12-05T03:03:46.700Z,98992.09
2018-12-05T03:06:17.405Z,98994.09
2018-12-05T03:08:48.955Z,98994.17
2018-12-05T03:11:19.849Z,98990.72
2018-12-05T03:13:50.621Z,98986.47
2018-12-05T03:16:21.707Z,98992.23
2018-12-05T03:18:52.477Z,98994.17
2018-12-05T03:21:23.141Z,98998.06
2018-12-05T03:23:53.858Z,99003.46
2018-12-05T03:26:24.847Z,99013.60
2018-12-05T03:28:55.597Z,99023.97
2018-12-05T03:31:26.238Z,99020.45
2018-12-05T03:33:57.023Z,99013.47
2018-12-05T03:36:28.093Z,99021.30
2018-12-05T03:38:58.836Z,99026.04
2018-12-05T03:41:30.825Z,99032.47
2018-12-05T03:44:01.507Z,99040.73
2018-12-05T03:46:34.702Z,99043.32
2018-12-05T03:49:06.579Z,99044.12
2018-12-05T03:51:37.360Z,99043.19
2018-12-05T03:54:12.121Z,99039.05
2018-12-05T03:56:44.541Z,99032.29
2018-12-05T03:59:15.254Z,99034.47
2018-12-05T04:01:46.162Z,99035.46
2018-12-05T04:04:17.002Z,99030.73
2018-12-05T04:06:48.006Z,99026.84
2018-12-05T04:09:19.177Z,99020.63
2018-12-05T04:11:49.941Z,99011.97
2018-12-05T04:14:20.870Z,99002.09
2018-12-05T04:16:52.328Z,98997.00
2018-12-05T04:19:23.184Z,99001.81
2018-12-05T04:21:54.050Z,99001.73
2018-12-05T04:24:25.322Z,98999.49
2018-12-05T04:26:56.166Z,99001.45
2018-12-05T04:29:26.926Z,99009.52
2018-12-05T04:31:58.582Z,99008.52
2018-12-05T04:34:30.718Z,99003.77
2018-12-05T04:37:01.511Z,99006.34
2018-12-05T04:39:32.253Z,98999.77
2018-12-05T04:42:03.025Z,98990.77
2018-12-05T04:44:35.201Z,98992.17
2018-12-05T04:47:05.944Z,98989.97
2018-12-05T04:49:36.581Z,98992.06
2018-12-05T04:52:07.280Z,98999.35
2018-12-05T04:54:37.994Z,98990.35
2018-12-05T04:57:08.870Z,98999.93
2018-12-05T04:59:39.544Z,99004.55
2018-12-05T05:02:11.824Z,99006.00
2018-12-05T05:04:42.519Z,98998.86
2018-12-05T05:07:13.188Z,99001.39
2018-12-05T05:09:45.609Z,99001.91
2018-12-05T05:12:19.423Z,98996.70
2018-12-05T05:14:50.377Z,98999.02
2018-12-05T05:17:21.182Z,99000.75
2018-12-05T05:19:53.330Z,99000.70
2018-12-05T05:22:24.150Z,99008.56
2018-12-05T05:24:57.993Z,98999.62
2018-12-05T05:27:28.806Z,99001.45
2018-12-05T05:30:00.885Z,99003.55
2018-12-05T05:32:31.786Z,99014.03
2018-12-05T05:35:02.522Z,99018.78
2018-12-05T05:37:33.535Z,99025.63
2018-12-05T05:40:04.275Z,99025.16
2018-12-05T05:42:34.995Z,99027.28
2018-12-05T05:45:05.800Z,99023.72
2018-12-05T05:47:36.576Z,99029.44
2018-12-05T05:50:07.583Z,99024.33
2018-12-05T05:52:38.931Z,99016.10
2018-12-05T05:55:09.693Z,99009.83
2018-12-05T05:57:40.481Z,99019.55
2018-12-05T06:00:11.677Z,99019.97
2018-12-05T06:02:42.488Z,99018.78
2018-12-05T06:05:13.200Z,99015.38
2018-12-05T06:07:44.008Z,99010.27
2018-12-05T06:10:18.252Z,99014.97
2018-12-05T06:12:50.778Z,99012.30
2018-12-05T06:15:25.367Z,99012.48
2018-12-05T06:17:59.956Z,99009.67
2018-12-05T06:20:31.981Z,99012.30
2018-12-05T06:23:04.468Z,99014.95
2018-12-05T06:25:35.697Z,99015.30
2018-12-05T06:28:06.413Z,99007.08
2018-12-05T06:30:37.493Z,99013.64
2018-12-05T06:33:08.245Z,99015.83
2018-12-05T06:35:41.160Z,99026.77
2018-12-05T06:38:11.886Z,99028.58
2018-12-05T06:40:42.641Z,99022.64
2018-12-05T06:43:13.356Z,99030.27
2018-12-05T06:45:44.170Z,99026.12
2018-12-05T06:48:15.228Z,99030.02
2018-12-05T06:50:45.998Z,99030.02
2018-12-05T06:53:19.235Z,99022.75
2018-12-05T06:55:55.089Z,99025.59
2018-12-05T06:58:36.653Z,99024.02
2018-12-05T07:01:12.823Z,99011.44
2018-12-05T07:03:45.697Z,99020.85
2018-12-05T07:06:21.710Z,99022.64
2018-12-05T07:09:10.282Z,99025.23
2018-12-05T07:11:42.433Z,99025.63
2018-12-05T07:14:14.525Z,99029.52
2018-12-05T07:16:49.026Z,99023.78
2018-12-05T07:19:19.728Z,99020.77
2018-12-05T07:21:50.533Z,99024.53
2018-12-05T07:24:21.529Z,99024.42
2018-12-05T07:26:52.249Z,99036.59
2018-12-05T07:29:23.036Z,99042.95
2018-12-05T07:31:54.188Z,99036.73
2018-12-05T07:34:24.913Z,99038.80
2018-12-05T07:36:55.734Z,99034.50
2018-12-05T07:39:26.754Z,99031.30
2018-12-05T07:41:57.801Z,99021.25
2018-12-05T07:44:28.409Z,99021.55
2018-12-05T07:46:59.560Z,99015.88
2018-12-05T07:49:30.526Z,99022.26
2018-12-05T07:52:02.077Z,99024.56
2018-12-05T07:54:32.885Z,99013.95
2018-12-05T07:57:03.729Z,99018.58
2018-12-05T07:59:35.861Z,99010.49
2018-12-05T08:02:06.834Z,99014.39
2018-12-05T08:04:37.764Z,99027.88
2018-12-05T08:07:08.627Z,99029.23
2018-12-05T08:09:39.485Z,99026.37
2018-12-05T08:12:11.839Z,99030.97
2018-12-05T08:14:42.557Z,99025.61
2018-12-05T08:17:13.501Z,99022.66
2018-12-05T08:19:44.560Z,99024.16
2018-12-05T08:22:15.399Z,99028.64
2018-12-05T08:24:46.182Z,99037.67
2018-12-05T08:27:16.966Z,99035.49
2018-12-05T08:29:47.691Z,99034.25
2018-12-05T08:32:18.759Z,99024.75
2018-12-05T08:34:50.467Z,99029.88
2018-12-05T08:37:21.211Z,99027.20
2018-12-05T08:39:55.601Z,99025.98
2018-12-05T08:42:26.436Z,99030.20
2018-12-05T08:44:57.239Z,99034.72
2018-12-05T08:47:33.651Z,99038.23
2018-12-05T08:50:01.021Z,99045.77
2018-12-05T08:52:31.725Z,99046.44
2018-12-05T08:55:02.701Z,99046.41
2018-12-05T08:57:33.429Z,99047.91
2018-12-05T09:00:04.164Z,99052.88
2018-12-05T09:02:38.653Z,99045.44
2018-12-05T09:05:09.419Z,99047.34
2018-12-05T09:07:40.153Z,99051.14
2018-12-05T09:10:11.379Z,99051.74
2018-12-05T09:12:42.395Z,99052.85
2018-12-05T09:15:13.129Z,99050.76
2018-12-05T09:17:44.089Z,99052.14
2018-12-05T09:20:14.850Z,99046.38
2018-12-05T09:22:45.637Z,99046.47
2018-12-05T09:25:18.292Z,99042.47
2018-12-05T09:27:49.071Z,99037.52
2018-12-05T09:30:20.044Z,99037.34
2018-12-05T09:32:51.056Z,99042.25
2018-12-05T09:37:50.504Z,99044.34
2018-12-05T09:40:21.245Z,99039.61
2018-12-05T09:42:54.051Z,99033.20
2018-12-05T09:45:24.741Z,99027.26
2018-12-05T09:47:55.446Z,99024.44
2018-12-05T09:50:27.081Z,99031.41
2018-12-05T09:52:57.733Z,99025.65
2018-12-05T09:55:30.744Z,99038.16
2018-12-05T09:58:01.567Z,99031.30
2018-12-05T10:00:33.841Z,99031.82
2018-12-05T10:03:07.899Z,99036.47
2018-12-05T10:05:38.566Z,99041.16
2018-12-05T10:08:09.380Z,99033.55
2018-12-05T10:10:41.474Z,99022.11
2018-12-05T10:13:12.144Z,99010.23
2018-12-05T10:15:42.878Z,99009.77
2018-12-05T10:18:15.753Z,99001.50
2018-12-05T10:20:46.431Z,99000.20
2018-12-05T10:23:19.422Z,98996.45
2018-12-05T10:25:50.229Z,98996.50
2018-12-05T10:28:20.991Z,98998.38
2018-12-05T10:30:52.281Z,98990.75
2018-12-05T10:33:23.000Z,98991.85
2018-12-05T10:35:53.707Z,98988.39
2018-12-05T10:38:26.289Z,98977.84
2018-12-05T10:40:57.253Z,98973.87
2018-12-05T10:46:31.811Z,98958.53
2018-12-05T10:49:02.858Z,98955.67
2018-12-05T10:51:34.438Z,98948.44
2018-12-05T10:54:05.421Z,98955.67
2018-12-05T10:56:43.310Z,98945.70
2018-12-05T10:59:18.632Z,98955.34
2018-12-05T11:02:01.571Z,98948.70
2018-12-05T11:04:38.331Z,98945.69
2018-12-05T11:07:18.023Z,98933.75
2018-12-05T11:09:56.057Z,98938.05
2018-12-05T11:12:38.870Z,98941.56
2018-12-05T11:15:19.731Z,98933.94
2018-12-05T11:18:07.659Z,98934.16
2018-12-05T11:20:48.858Z,98945.62
2018-12-05T11:23:27.942Z,98943.02
2018-12-05T11:26:06.094Z,98947.03
2018-12-05T11:28:48.093Z,98941.09
2018-12-05T11:31:27.512Z,98930.41
2018-12-05T11:34:06.146Z,98934.74
2018-12-05T11:36:46.693Z,98928.02
2018-12-05T11:39:30.896Z,98930.16
2018-12-05T11:42:03.311Z,98936.59
2018-12-05T11:44:39.689Z,98932.08
2018-12-05T11:47:15.264Z,98928.11
2018-12-05T11:49:49.860Z,98923.83
2018-12-05T11:52:22.733Z,98922.70
2018-12-05T11:54:57.495Z,98907.94
2018-12-05T11:57:33.325Z,98905.59
2018-12-05T12:00:10.109Z,98903.27
2018-12-05T12:02:44.130Z,98904.48
2018-12-05T12:05:20.675Z,98900.66
2018-12-05T12:07:55.561Z,98904.14
2018-12-05T12:10:36.815Z,98898.98
2018-12-05T12:13:11.253Z,98891.68
2018-12-05T12:15:46.296Z,98886.59
2018-12-05T12:18:22.259Z,98884.64
2018-12-05T12:21:00.273Z,98868.38
2018-12-05T12:23:34.227Z,98864.02
2018-12-05T12:26:09.350Z,98853.70
2018-12-05T12:28:43.967Z,98849.65
2018-12-05T12:31:19.910Z,98849.67
2018-12-05T12:33:54.763Z,98851.88
2018-12-05T12:36:29.691Z,98849.67
2018-12-05T12:39:04.141Z,98839.69
2018-12-05T12:41:38.910Z,98826.33
2018-12-05T12:44:15.170Z,98820.17
2018-12-05T12:51:47.731Z,98819.80
2018-12-05T12:54:23.034Z,98815.75
2018-12-05T12:56:56.042Z,98809.77
2018-12-05T12:59:30.708Z,98802.98
2018-12-05T13:02:07.174Z,98788.49
2018-12-05T13:04:42.317Z,98785.83
2018-12-05T13:07:14.220Z,98794.09
2018-12-05T13:09:45.752Z,98788.41
2018-12-05T13:12:25.267Z,98788.48
2018-12-05T13:15:00.116Z,98786.28
2018-12-05T13:17:31.133Z,98781.24
2018-12-05T13:20:04.675Z,98782.92
2018-12-05T13:22:39.232Z,98769.02
2018-12-05T13:25:13.734Z,98764.92
2018-12-05T13:27:48.218Z,98759.44
2018-12-05T13:30:23.398Z,98753.91
2018-12-05T13:32:57.831Z,98760.20
2018-12-05T13:35:33.426Z,98760.25
2018-12-05T13:38:05.176Z,98717.92
2018-12-05T13:40:37.640Z,98751.92
2018-12-05T13:43:12.855Z,98741.75
2018-12-05T13:45:47.809Z,98735.77
2018-12-05T13:48:20.673Z,98737.26
2018-12-05T13:50:57.396Z,98741.67
2018-12-05T14:03:26.108Z,98743.31
2018-12-05T14:06:01.408Z,98743.20
2018-12-05T14:08:35.441Z,98745.09
2018-12-05T14:11:07.792Z,98584.34
2018-12-05T14:13:42.367Z,98731.22
2018-12-05T14:16:16.691Z,98733.69
2018-12-05T14:18:49.354Z,98730.80
2018-12-05T14:21:23.807Z,98732.17
2018-12-05T14:23:55.343Z,98738.36
2018-12-05T14:26:32.554Z,98739.94
2018-12-05T14:29:07.066Z,98733.08
2018-12-05T14:31:41.428Z,98724.45
2018-12-05T14:34:15.909Z,98712.99
2018-12-05T14:36:50.618Z,98709.21
2018-12-05T14:39:27.474Z,98710.38
2018-12-05T14:42:03.004Z,98712.45
2018-12-05T14:44:39.472Z,98707.29
2018-12-05T14:47:14.744Z,98706.88
2018-12-05T14:49:47.647Z,98711.55
2018-12-05T14:52:21.919Z,98704.09
2018-12-05T14:54:54.635Z,98704.27
2018-12-05T14:57:30.720Z,98712.04
2018-12-05T15:00:06.008Z,98707.94
2018-12-05T15:02:40.594Z,98706.64
2018-12-05T15:12:42.273Z,98686.66
2018-12-05T15:15:13.599Z,98681.25
2018-12-05T15:17:44.709Z,98688.01
2018-12-05T15:20:17.201Z,98684.53
2018-12-05T15:22:49.201Z,98683.95
2018-12-05T15:25:20.189Z,98678.88
2018-12-05T15:27:51.604Z,98667.28
2018-12-05T15:30:24.315Z,98671.69
2018-12-05T15:32:55.410Z,98668.63
2018-12-05T15:35:26.562Z,98659.72
2018-12-05T15:37:57.677Z,98650.94
2018-12-05T15:40:28.726Z,98647.20
2018-12-05T15:43:00.291Z,98648.91
2018-12-05T15:45:31.287Z,98647.48
2018-12-05T15:48:03.393Z,98647.08
2018-12-05T15:50:34.457Z,98639.59
2018-12-05T15:53:05.849Z,98652.53
2018-12-05T15:55:36.878Z,98639.67
2018-12-05T15:58:08.265Z,98634.64
2018-12-05T16:00:39.310Z,98636.91
2018-12-05T16:03:10.494Z,98645.49
2018-12-05T16:05:42.217Z,98640.16
2018-12-05T16:08:13.242Z,98635.00
2018-12-05T16:10:44.257Z,98632.00
2018-12-05T16:13:15.229Z,98629.47
2018-12-05T16:15:46.282Z,98634.31
2018-12-05T16:18:17.209Z,98631.95
2018-12-05T16:20:48.594Z,98629.47
2018-12-05T16:23:19.623Z,98627.84
2018-12-05T16:25:50.785Z,98624.80
2018-12-05T16:28:22.129Z,98626.38
2018-12-05T16:30:53.174Z,98627.60
2018-12-05T16:33:24.270Z,98631.17
2018-12-05T16:35:55.317Z,98627.64
2018-12-05T16:38:27.647Z,98630.66
2018-12-05T16:40:58.736Z,98625.89
2018-12-05T16:43:29.790Z,98622.11
2018-12-05T16:46:01.193Z,98623.42
2018-12-05T16:48:32.280Z,98615.69
2018-12-05T16:51:03.417Z,98610.86
2018-12-05T16:53:34.487Z,98614.14
2018-12-05T16:56:05.697Z,98620.36
2018-12-05T16:58:36.843Z,98609.06
2018-12-05T17:01:08.035Z,98607.11
2018-12-05T17:03:39.441Z,98605.73
2018-12-05T17:06:10.774Z,98604.25
2018-12-05T17:08:42.112Z,98607.27
2018-12-05T17:11:13.270Z,98608.94
2018-12-05T17:13:44.474Z,98605.69
2018-12-05T17:16:18.089Z,98602.55
2018-12-05T17:18:51.042Z,98602.55
2018-12-05T17:25:22.448Z,98607.71
2018-12-05T17:27:53.817Z,98589.22
2018-12-05T17:30:25.387Z,98583.03
2018-12-05T17:32:56.840Z,98583.36
2018-12-05T17:35:28.722Z,98573.45
2018-12-05T17:37:59.828Z,98581.98
2018-12-05T17:40:31.420Z,98572.60
2018-12-05T17:43:03.934Z,98567.55
2018-12-05T17:45:35.285Z,98560.64
2018-12-05T17:48:06.638Z,98561.14
2018-12-05T17:50:37.765Z,98556.39
2018-12-05T17:53:08.925Z,98554.88
2018-12-05T17:55:42.065Z,98552.33
2018-12-05T17:58:13.046Z,98547.20
2018-12-05T18:00:50.773Z,98547.45
2018-12-05T18:03:22.843Z,98507.22
2018-12-05T18:05:53.877Z,98537.81
2018-12-05T18:08:26.248Z,98529.94
2018-12-05T18:10:58.909Z,98522.70
2018-12-05T18:13:31.593Z,98529.85
2018-12-05T18:16:05.699Z,98524.53
2018-12-05T18:18:37.603Z,98525.67
2018-12-05T18:21:10.265Z,98519.17
2018-12-05T18:23:41.546Z,98516.20
2018-12-05T18:26:15.259Z,98508.03
2018-12-05T18:28:47.305Z,98514.84
2018-12-05T18:31:21.806Z,98514.15
2018-12-05T18:33:54.449Z,98514.15
2018-12-05T18:36:26.651Z,98516.86
2018-12-05T18:39:00.432Z,98514.12
2018-12-05T18:41:33.022Z,98506.76
2018-12-05T18:44:09.489Z,98505.05
2018-12-05T18:46:56.611Z,98497.97
2018-12-05T18:49:28.965Z,98495.95
2018-12-05T18:52:02.878Z,98498.44
2018-12-05T18:54:34.979Z,98497.49
2018-12-05T18:57:09.579Z,98495.75
2018-12-05T18:59:40.112Z,98485.43
2018-12-05T19:02:12.502Z,98375.06
2018-12-05T19:04:44.327Z,98469.85
2018-12-05T19:07:15.373Z,98471.67
2018-12-05T19:09:49.871Z,98471.63
2018-12-05T19:12:37.058Z,98474.08
2018-12-05T19:15:09.958Z,98479.68
2018-12-05T19:17:42.869Z,98473.14
2018-12-05T19:20:18.671Z,98470.50
2018-12-05T19:22:51.053Z,98475.17
2018-12-05T19:34:25.669Z,98455.77
2018-12-05T19:37:01.016Z,98474.72
2018-12-05T19:39:35.814Z,98489.22
2018-12-05T19:42:10.932Z,98486.75
2018-12-05T19:44:49.552Z,98483.61
2018-12-05T19:47:33.083Z,98480.48
2018-12-05T19:50:08.460Z,98465.30
2018-12-05T19:52:42.778Z,98456.53
2018-12-05T19:55:18.769Z,98447.11
2018-12-05T19:57:56.335Z,98445.53
2018-12-05T20:00:30.162Z,98433.03
2018-12-05T20:03:06.420Z,98418.36
2018-12-05T20:05:39.474Z,98414.75
2018-12-05T20:10:54.656Z,98410.41
2018-12-05T20:13:33.201Z,98409.84
2018-12-05T20:16:23.904Z,98415.03
2018-12-05T20:19:02.692Z,98407.12
2018-12-05T20:21:43.951Z,98400.63
2018-12-05T20:24:35.535Z,98401.92
2018-12-05T20:27:13.246Z,98399.31
2018-12-05T20:29:49.609Z,98387.88
2018-12-05T20:32:25.222Z,98394.40
2018-12-05T20:35:00.219Z,98392.58
2018-12-05T20:37:34.526Z,98375.48
2018-12-05T20:40:14.861Z,98378.08
2018-12-05T20:43:04.357Z,98375.20
2018-12-05T20:45:41.326Z,98391.03
2018-12-05T20:48:17.316Z,98377.23
2018-12-05T20:50:54.559Z,98385.87
2018-12-05T20:53:31.552Z,98373.86
2018-12-05T20:56:08.884Z,98374.55
2018-12-05T20:58:44.440Z,98367.36
2018-12-05T21:01:24.403Z,98353.92
2018-12-05T21:04:06.933Z,98357.50
2018-12-05T21:06:42.501Z,98362.16
2018-12-05T21:09:15.490Z,98364.23
2018-12-05T21:11:47.330Z,98362.56
2018-12-05T21:14:18.812Z,98372.71
2018-12-05T21:16:57.907Z,98376.61
2018-12-05T21:19:30.409Z,98377.75
2018-12-05T21:22:01.659Z,98375.30
2018-12-05T21:24:33.294Z,98381.16
2018-12-05T21:27:04.463Z,98374.01
2018-12-05T21:29:35.892Z,98356.58
2018-12-05T21:32:07.099Z,98338.56
2018-12-05T21:34:42.953Z,98329.53
2018-12-05T21:37:25.805Z,98327.56
2018-12-05T21:45:45.253Z,98336.53
2018-12-05T21:48:22.377Z,98339.41
2018-12-05T21:50:54.136Z,98346.77
2018-12-05T21:53:28.723Z,98351.44
2018-12-05T21:56:06.492Z,98351.11
2018-12-05T21:58:43.190Z,98347.22
2018-12-05T22:01:23.938Z,98324.56
2018-12-05T22:04:12.615Z,98316.91
2018-12-05T22:06:46.751Z,98203.78
2018-12-05T22:09:17.829Z,98330.38
2018-12-05T22:11:57.740Z,98333.95
2018-12-05T22:14:33.596Z,98336.30
2018-12-05T22:17:05.634Z,98347.09
2018-12-05T22:19:49.462Z,98360.48
2018-12-05T22:22:24.227Z,98360.69
2018-12-05T22:24:59.153Z,98368.84
2018-12-05T22:27:30.057Z,98360.41
2018-12-05T22:30:02.107Z,98371.77
2018-12-05T22:32:33.077Z,98371.53
2018-12-05T22:35:06.021Z,98321.59
2018-12-05T22:37:40.844Z,98363.70
2018-12-05T22:40:18.790Z,98363.37
2018-12-05T22:42:55.430Z,98360.28
2018-12-05T22:45:29.468Z,98370.55
2018-12-05T22:48:04.075Z,98370.43
2018-12-05T22:50:37.390Z,98362.56
2018-12-05T22:53:12.180Z,98365.36
2018-12-05T22:55:48.764Z,98357.16
2018-12-05T22:58:23.785Z,98351.19
2018-12-05T23:00:59.693Z,98340.97
2018-12-05T23:03:35.973Z,98347.42
2018-12-05T23:06:08.746Z,98351.89
2018-12-05T23:08:41.621Z,98350.42
2018-12-05T23:11:14.760Z,98351.64
2018-12-05T23:13:46.711Z,98350.20
2018-12-05T23:16:23.306Z,98342.00
2018-12-05T23:18:56.111Z,98332.99
2018-12-05T23:21:40.161Z,98341.60
2018-12-05T23:24:14.575Z,98337.34
2018-12-05T23:26:46.581Z,98335.11
2018-12-05T23:29:19.347Z,98333.69
2018-12-05T23:32:07.235Z,98327.99
2018-12-05T23:34:39.305Z,98330.59
2018-12-05T23:37:10.536Z,98336.81
2018-12-05T23:39:41.541Z,98336.77
2018-12-05T23:42:12.877Z,98333.69
2018-12-05T23:44:43.874Z,98338.75
2018-12-05T23:47:14.849Z,98340.58
2018-12-05T23:49:46.594Z,98343.30
2018-12-05T23:52:17.567Z,98353.32
2018-12-05T23:54:50.205Z,98352.54
2018-12-05T23:57:21.151Z,98362.69
2018-12-05T23:59:52.163Z,98376.58
